sensor_id;sensor_type;location;lat;lon;timestamp;P1;durP1;ratioP1;P2;durP2;ratioP2
79460;SDS011;68929;42.666;23.324;2023-07-13T00:02:06;9.68;;;6.13;;
79460;SDS011;68929;42.666;23.324;2023-07-13T00:04:31;12.23;;;6.78;;
79460;SDS011;68929;42.666;23.324;2023-07-13T00:06:57;8.00;;;5.55;;
79460;SDS011;68929;42.666;23.324;2023-07-13T00:09:22;9.15;;;4.95;;
79460;SDS011;68929;42.666;23.324;2023-07-13T00:11:52;12.95;;;6.38;;
79460;SDS011;68929;42.666;23.324;2023-07-13T00:14:20;11.75;;;6.82;;
79460;SDS011;68929;42.666;23.324;2023-07-13T00:16:45;9.63;;;6.03;;
79460;SDS011;68929;42.666;23.324;2023-07-13T00:19:11;7.30;;;5.30;;
79460;SDS011;68929;42.666;23.324;2023-07-13T00:21:41;8.80;;;5.25;;
79460;SDS011;68929;42.666;23.324;2023-07-13T00:24:07;7.95;;;5.85;;
79460;SDS011;68929;42.666;23.324;2023-07-13T00:26:37;8.50;;;5.78;;
79460;SDS011;68929;42.666;23.324;2023-07-13T00:29:03;10.18;;;5.90;;
79460;SDS011;68929;42.666;23.324;2023-07-13T00:31:29;9.13;;;5.82;;
79460;SDS011;68929;42.666;23.324;2023-07-13T00:33:55;8.32;;;6.18;;
79460;SDS011;68929;42.666;23.324;2023-07-13T00:36:21;16.52;;;6.65;;
79460;SDS011;68929;42.666;23.324;2023-07-13T00:38:46;11.82;;;6.03;;
79460;SDS011;68929;42.666;23.324;2023-07-13T00:41:12;8.85;;;5.82;;
79460;SDS011;68929;42.666;23.324;2023-07-13T00:43:38;11.13;;;6.00;;
79460;SDS011;68929;42.666;23.324;2023-07-13T00:46:15;9.57;;;5.90;;
79460;SDS011;68929;42.666;23.324;2023-07-13T00:48:49;11.73;;;6.18;;
79460;SDS011;68929;42.666;23.324;2023-07-13T00:51:16;7.10;;;4.93;;
79460;SDS011;68929;42.666;23.324;2023-07-13T00:53:45;10.97;;;5.77;;
79460;SDS011;68929;42.666;23.324;2023-07-13T00:56:11;8.43;;;5.40;;
79460;SDS011;68929;42.666;23.324;2023-07-13T00:58:37;8.95;;;5.65;;
79460;SDS011;68929;42.666;23.324;2023-07-13T01:01:03;9.10;;;5.80;;
79460;SDS011;68929;42.666;23.324;2023-07-13T01:03:28;6.20;;;4.53;;
79460;SDS011;68929;42.666;23.324;2023-07-13T01:05:54;8.45;;;5.45;;
79460;SDS011;68929;42.666;23.324;2023-07-13T01:08:20;7.45;;;5.65;;
79460;SDS011;68929;42.666;23.324;2023-07-13T01:10:56;6.95;;;5.30;;
79460;SDS011;68929;42.666;23.324;2023-07-13T01:13:23;13.93;;;7.00;;
79460;SDS011;68929;42.666;23.324;2023-07-13T01:15:50;9.00;;;5.85;;
79460;SDS011;68929;42.666;23.324;2023-07-13T01:18:23;13.35;;;7.32;;
79460;SDS011;68929;42.666;23.324;2023-07-13T01:21:01;9.60;;;6.10;;
79460;SDS011;68929;42.666;23.324;2023-07-13T01:23:29;9.70;;;6.18;;
79460;SDS011;68929;42.666;23.324;2023-07-13T01:25:55;11.05;;;6.80;;
79460;SDS011;68929;42.666;23.324;2023-07-13T01:28:22;11.45;;;6.55;;
79460;SDS011;68929;42.666;23.324;2023-07-13T01:30:52;7.43;;;6.72;;
79460;SDS011;68929;42.666;23.324;2023-07-13T01:33:18;7.35;;;5.78;;
79460;SDS011;68929;42.666;23.324;2023-07-13T01:35:44;9.25;;;6.68;;
79460;SDS011;68929;42.666;23.324;2023-07-13T01:38:12;9.20;;;5.70;;
79460;SDS011;68929;42.666;23.324;2023-07-13T01:40:39;12.07;;;5.78;;
79460;SDS011;68929;42.666;23.324;2023-07-13T01:43:05;11.75;;;6.05;;
79460;SDS011;68929;42.666;23.324;2023-07-13T01:45:30;7.75;;;5.93;;
79460;SDS011;68929;42.666;23.324;2023-07-13T01:47:56;15.32;;;6.70;;
79460;SDS011;68929;42.666;23.324;2023-07-13T01:50:22;9.55;;;5.80;;
79460;SDS011;68929;42.666;23.324;2023-07-13T01:52:48;7.93;;;6.05;;
79460;SDS011;68929;42.666;23.324;2023-07-13T01:55:14;8.05;;;6.85;;
79460;SDS011;68929;42.666;23.324;2023-07-13T01:57:39;7.40;;;5.68;;
79460;SDS011;68929;42.666;23.324;2023-07-13T02:00:05;9.52;;;6.13;;
79460;SDS011;68929;42.666;23.324;2023-07-13T02:02:31;12.32;;;5.60;;
79460;SDS011;68929;42.666;23.324;2023-07-13T02:04:57;10.98;;;6.22;;
79460;SDS011;68929;42.666;23.324;2023-07-13T02:07:23;8.10;;;5.60;;
79460;SDS011;68929;42.666;23.324;2023-07-13T02:09:48;6.18;;;5.32;;
79460;SDS011;68929;42.666;23.324;2023-07-13T02:12:14;7.03;;;6.32;;
79460;SDS011;68929;42.666;23.324;2023-07-13T02:14:39;10.68;;;6.90;;
79460;SDS011;68929;42.666;23.324;2023-07-13T02:17:05;8.23;;;5.68;;
79460;SDS011;68929;42.666;23.324;2023-07-13T02:19:31;10.77;;;6.05;;
79460;SDS011;68929;42.666;23.324;2023-07-13T02:21:56;12.35;;;6.13;;
79460;SDS011;68929;42.666;23.324;2023-07-13T02:24:22;6.30;;;5.70;;
79460;SDS011;68929;42.666;23.324;2023-07-13T02:26:47;14.27;;;6.85;;
79460;SDS011;68929;42.666;23.324;2023-07-13T02:29:13;9.77;;;6.43;;
79460;SDS011;68929;42.666;23.324;2023-07-13T02:31:39;10.70;;;6.18;;
79460;SDS011;68929;42.666;23.324;2023-07-13T02:34:04;11.02;;;6.85;;
79460;SDS011;68929;42.666;23.324;2023-07-13T02:36:30;11.02;;;7.97;;
79460;SDS011;68929;42.666;23.324;2023-07-13T02:38:57;13.75;;;6.85;;
79460;SDS011;68929;42.666;23.324;2023-07-13T02:41:26;8.27;;;6.47;;
79460;SDS011;68929;42.666;23.324;2023-07-13T02:43:54;7.88;;;6.35;;
79460;SDS011;68929;42.666;23.324;2023-07-13T02:46:27;8.93;;;6.38;;
79460;SDS011;68929;42.666;23.324;2023-07-13T02:48:53;7.60;;;5.97;;
79460;SDS011;68929;42.666;23.324;2023-07-13T02:51:19;10.07;;;5.90;;
79460;SDS011;68929;42.666;23.324;2023-07-13T02:53:44;8.63;;;5.63;;
79460;SDS011;68929;42.666;23.324;2023-07-13T02:56:09;8.43;;;6.10;;
79460;SDS011;68929;42.666;23.324;2023-07-13T02:58:35;9.95;;;6.60;;
79460;SDS011;68929;42.666;23.324;2023-07-13T03:01:08;6.03;;;5.35;;
79460;SDS011;68929;42.666;23.324;2023-07-13T03:03:34;10.70;;;6.70;;
79460;SDS011;68929;42.666;23.324;2023-07-13T03:06:01;10.18;;;6.43;;
79460;SDS011;68929;42.666;23.324;2023-07-13T03:08:28;5.55;;;4.97;;
79460;SDS011;68929;42.666;23.324;2023-07-13T03:11:04;8.98;;;5.57;;
79460;SDS011;68929;42.666;23.324;2023-07-13T03:13:32;7.25;;;5.55;;
79460;SDS011;68929;42.666;23.324;2023-07-13T03:15:57;16.27;;;7.40;;
79460;SDS011;68929;42.666;23.324;2023-07-13T03:18:23;13.48;;;7.43;;
79460;SDS011;68929;42.666;23.324;2023-07-13T03:20:51;9.55;;;7.47;;
79460;SDS011;68929;42.666;23.324;2023-07-13T03:23:17;8.52;;;6.82;;
79460;SDS011;68929;42.666;23.324;2023-07-13T03:25:43;15.18;;;8.75;;
79460;SDS011;68929;42.666;23.324;2023-07-13T03:28:14;11.70;;;7.47;;
79460;SDS011;68929;42.666;23.324;2023-07-13T03:30:40;9.45;;;7.15;;
79460;SDS011;68929;42.666;23.324;2023-07-13T03:33:06;11.60;;;8.55;;
79460;SDS011;68929;42.666;23.324;2023-07-13T03:35:32;13.45;;;9.43;;
79460;SDS011;68929;42.666;23.324;2023-07-13T03:38:00;12.65;;;8.02;;
79460;SDS011;68929;42.666;23.324;2023-07-13T03:40:27;12.65;;;9.52;;
79460;SDS011;68929;42.666;23.324;2023-07-13T03:42:53;14.00;;;9.10;;
79460;SDS011;68929;42.666;23.324;2023-07-13T03:45:18;10.82;;;8.90;;
79460;SDS011;68929;42.666;23.324;2023-07-13T03:47:44;9.38;;;8.23;;
79460;SDS011;68929;42.666;23.324;2023-07-13T03:50:10;16.58;;;11.07;;
79460;SDS011;68929;42.666;23.324;2023-07-13T03:52:36;15.02;;;9.68;;
79460;SDS011;68929;42.666;23.324;2023-07-13T03:55:04;20.48;;;9.30;;
79460;SDS011;68929;42.666;23.324;2023-07-13T03:57:31;10.65;;;7.97;;
79460;SDS011;68929;42.666;23.324;2023-07-13T03:59:56;15.52;;;10.13;;
79460;SDS011;68929;42.666;23.324;2023-07-13T04:02:22;11.73;;;9.23;;
79460;SDS011;68929;42.666;23.324;2023-07-13T04:04:47;13.57;;;9.30;;
79460;SDS011;68929;42.666;23.324;2023-07-13T04:07:13;12.15;;;10.32;;
79460;SDS011;68929;42.666;23.324;2023-07-13T04:09:38;13.23;;;9.95;;
79460;SDS011;68929;42.666;23.324;2023-07-13T04:12:03;14.38;;;10.15;;
79460;SDS011;68929;42.666;23.324;2023-07-13T04:14:29;11.75;;;9.30;;
79460;SDS011;68929;42.666;23.324;2023-07-13T04:16:55;13.48;;;10.25;;
79460;SDS011;68929;42.666;23.324;2023-07-13T04:19:20;14.80;;;9.95;;
79460;SDS011;68929;42.666;23.324;2023-07-13T04:21:46;17.15;;;11.18;;
79460;SDS011;68929;42.666;23.324;2023-07-13T04:24:12;18.70;;;10.98;;
79460;SDS011;68929;42.666;23.324;2023-07-13T04:26:37;11.23;;;8.43;;
79460;SDS011;68929;42.666;23.324;2023-07-13T04:29:03;14.15;;;7.95;;
79460;SDS011;68929;42.666;23.324;2023-07-13T04:31:29;18.15;;;10.50;;
79460;SDS011;68929;42.666;23.324;2023-07-13T04:33:55;10.23;;;7.93;;
79460;SDS011;68929;42.666;23.324;2023-07-13T04:36:28;11.43;;;8.25;;
79460;SDS011;68929;42.666;23.324;2023-07-13T04:38:53;8.10;;;7.13;;
79460;SDS011;68929;42.666;23.324;2023-07-13T04:41:19;9.45;;;8.02;;
79460;SDS011;68929;42.666;23.324;2023-07-13T04:43:46;16.90;;;10.68;;
79460;SDS011;68929;42.666;23.324;2023-07-13T04:46:13;18.02;;;12.02;;
79460;SDS011;68929;42.666;23.324;2023-07-13T04:48:40;14.13;;;12.48;;
79460;SDS011;68929;42.666;23.324;2023-07-13T04:51:06;13.77;;;11.40;;
79460;SDS011;68929;42.666;23.324;2023-07-13T04:53:32;17.83;;;12.25;;
79460;SDS011;68929;42.666;23.324;2023-07-13T04:55:59;15.25;;;13.52;;
79460;SDS011;68929;42.666;23.324;2023-07-13T04:58:25;14.35;;;11.10;;
79460;SDS011;68929;42.666;23.324;2023-07-13T05:00:51;20.15;;;12.00;;
79460;SDS011;68929;42.666;23.324;2023-07-13T05:03:17;17.65;;;13.38;;
79460;SDS011;68929;42.666;23.324;2023-07-13T05:05:42;13.23;;;10.48;;
79460;SDS011;68929;42.666;23.324;2023-07-13T05:08:08;14.65;;;13.18;;
79460;SDS011;68929;42.666;23.324;2023-07-13T05:10:35;16.25;;;11.70;;
79460;SDS011;68929;42.666;23.324;2023-07-13T05:13:00;12.38;;;9.82;;
79460;SDS011;68929;42.666;23.324;2023-07-13T05:15:26;18.50;;;14.05;;
79460;SDS011;68929;42.666;23.324;2023-07-13T05:17:51;10.43;;;9.38;;
79460;SDS011;68929;42.666;23.324;2023-07-13T05:20:17;12.02;;;10.93;;
79460;SDS011;68929;42.666;23.324;2023-07-13T05:22:43;10.75;;;9.48;;
79460;SDS011;68929;42.666;23.324;2023-07-13T05:25:16;12.65;;;11.23;;
79460;SDS011;68929;42.666;23.324;2023-07-13T05:30:16;15.98;;;12.82;;
79460;SDS011;68929;42.666;23.324;2023-07-13T05:32:46;16.35;;;13.35;;
79460;SDS011;68929;42.666;23.324;2023-07-13T05:35:12;10.10;;;8.93;;
79460;SDS011;68929;42.666;23.324;2023-07-13T05:37:37;18.17;;;13.48;;
79460;SDS011;68929;42.666;23.324;2023-07-13T05:40:03;18.98;;;12.25;;
79460;SDS011;68929;42.666;23.324;2023-07-13T05:42:28;14.82;;;12.85;;
79460;SDS011;68929;42.666;23.324;2023-07-13T05:44:56;9.88;;;8.88;;
79460;SDS011;68929;42.666;23.324;2023-07-13T05:47:21;11.82;;;10.30;;
79460;SDS011;68929;42.666;23.324;2023-07-13T05:49:50;23.63;;;13.45;;
79460;SDS011;68929;42.666;23.324;2023-07-13T05:52:22;21.70;;;15.30;;
79460;SDS011;68929;42.666;23.324;2023-07-13T05:54:48;22.05;;;15.35;;
79460;SDS011;68929;42.666;23.324;2023-07-13T05:57:13;18.55;;;12.70;;
79460;SDS011;68929;42.666;23.324;2023-07-13T05:59:38;13.73;;;12.05;;
79460;SDS011;68929;42.666;23.324;2023-07-13T06:02:05;20.30;;;12.90;;
79460;SDS011;68929;42.666;23.324;2023-07-13T06:04:30;15.32;;;12.48;;
79460;SDS011;68929;42.666;23.324;2023-07-13T06:06:56;14.70;;;10.50;;
79460;SDS011;68929;42.666;23.324;2023-07-13T06:09:21;14.80;;;11.10;;
79460;SDS011;68929;42.666;23.324;2023-07-13T06:11:46;22.67;;;12.10;;
79460;SDS011;68929;42.666;23.324;2023-07-13T06:14:12;17.10;;;11.70;;
79460;SDS011;68929;42.666;23.324;2023-07-13T06:16:37;12.82;;;10.25;;
79460;SDS011;68929;42.666;23.324;2023-07-13T06:19:02;19.83;;;11.75;;
79460;SDS011;68929;42.666;23.324;2023-07-13T06:21:28;10.18;;;8.40;;
79460;SDS011;68929;42.666;23.324;2023-07-13T06:23:53;14.65;;;9.23;;
79460;SDS011;68929;42.666;23.324;2023-07-13T06:26:19;19.55;;;8.65;;
79460;SDS011;68929;42.666;23.324;2023-07-13T06:28:45;10.20;;;8.30;;
79460;SDS011;68929;42.666;23.324;2023-07-13T06:31:12;11.93;;;7.97;;
79460;SDS011;68929;42.666;23.324;2023-07-13T06:33:38;10.98;;;7.72;;
79460;SDS011;68929;42.666;23.324;2023-07-13T06:36:04;10.05;;;7.40;;
79460;SDS011;68929;42.666;23.324;2023-07-13T06:38:31;8.02;;;6.95;;
79460;SDS011;68929;42.666;23.324;2023-07-13T06:40:58;15.95;;;9.95;;
79460;SDS011;68929;42.666;23.324;2023-07-13T06:43:26;11.15;;;6.93;;
79460;SDS011;68929;42.666;23.324;2023-07-13T06:46:01;12.68;;;8.73;;
79460;SDS011;68929;42.666;23.324;2023-07-13T06:48:31;12.15;;;6.90;;
79460;SDS011;68929;42.666;23.324;2023-07-13T06:51:02;12.73;;;9.52;;
79460;SDS011;68929;42.666;23.324;2023-07-13T06:53:27;11.88;;;8.90;;
79460;SDS011;68929;42.666;23.324;2023-07-13T06:55:53;13.60;;;8.85;;
79460;SDS011;68929;42.666;23.324;2023-07-13T06:58:18;14.07;;;9.13;;
79460;SDS011;68929;42.666;23.324;2023-07-13T07:00:46;13.85;;;9.27;;
79460;SDS011;68929;42.666;23.324;2023-07-13T07:03:11;10.32;;;7.68;;
79460;SDS011;68929;42.666;23.324;2023-07-13T07:05:37;10.07;;;7.10;;
79460;SDS011;68929;42.666;23.324;2023-07-13T07:08:02;7.97;;;6.55;;
79460;SDS011;68929;42.666;23.324;2023-07-13T07:10:28;12.13;;;9.68;;
79460;SDS011;68929;42.666;23.324;2023-07-13T07:12:55;11.88;;;9.00;;
79460;SDS011;68929;42.666;23.324;2023-07-13T07:15:20;11.35;;;9.15;;
79460;SDS011;68929;42.666;23.324;2023-07-13T07:17:45;15.93;;;9.63;;
79460;SDS011;68929;42.666;23.324;2023-07-13T07:20:11;8.20;;;7.15;;
79460;SDS011;68929;42.666;23.324;2023-07-13T07:22:36;9.80;;;7.88;;
79460;SDS011;68929;42.666;23.324;2023-07-13T07:25:02;10.18;;;6.93;;
79460;SDS011;68929;42.666;23.324;2023-07-13T07:27:27;10.88;;;8.38;;
79460;SDS011;68929;42.666;23.324;2023-07-13T07:29:53;9.60;;;6.97;;
79460;SDS011;68929;42.666;23.324;2023-07-13T07:32:19;8.75;;;6.60;;
79460;SDS011;68929;42.666;23.324;2023-07-13T07:34:45;9.20;;;6.18;;
79460;SDS011;68929;42.666;23.324;2023-07-13T07:37:11;10.05;;;6.50;;
79460;SDS011;68929;42.666;23.324;2023-07-13T07:39:38;7.60;;;5.82;;
79460;SDS011;68929;42.666;23.324;2023-07-13T07:42:03;13.38;;;9.07;;
79460;SDS011;68929;42.666;23.324;2023-07-13T07:44:30;7.00;;;6.30;;
79460;SDS011;68929;42.666;23.324;2023-07-13T07:46:56;9.90;;;6.22;;
79460;SDS011;68929;42.666;23.324;2023-07-13T07:49:21;7.10;;;4.95;;
79460;SDS011;68929;42.666;23.324;2023-07-13T07:51:47;9.75;;;7.93;;
79460;SDS011;68929;42.666;23.324;2023-07-13T07:54:17;9.05;;;7.18;;
79460;SDS011;68929;42.666;23.324;2023-07-13T07:56:47;8.35;;;7.55;;
79460;SDS011;68929;42.666;23.324;2023-07-13T07:59:12;12.23;;;6.47;;
79460;SDS011;68929;42.666;23.324;2023-07-13T08:01:37;10.48;;;7.07;;
79460;SDS011;68929;42.666;23.324;2023-07-13T08:04:04;10.98;;;8.20;;
79460;SDS011;68929;42.666;23.324;2023-07-13T08:06:31;8.60;;;6.80;;
79460;SDS011;68929;42.666;23.324;2023-07-13T08:08:58;12.52;;;7.13;;
79460;SDS011;68929;42.666;23.324;2023-07-13T08:11:24;10.18;;;6.93;;
79460;SDS011;68929;42.666;23.324;2023-07-13T08:13:49;12.80;;;7.80;;
79460;SDS011;68929;42.666;23.324;2023-07-13T08:16:15;11.00;;;8.20;;
79460;SDS011;68929;42.666;23.324;2023-07-13T08:18:40;11.23;;;6.97;;
79460;SDS011;68929;42.666;23.324;2023-07-13T08:21:10;11.52;;;8.00;;
79460;SDS011;68929;42.666;23.324;2023-07-13T08:23:39;13.35;;;9.18;;
79460;SDS011;68929;42.666;23.324;2023-07-13T08:26:05;11.85;;;7.13;;
79460;SDS011;68929;42.666;23.324;2023-07-13T08:28:36;14.05;;;8.65;;
79460;SDS011;68929;42.666;23.324;2023-07-13T08:31:05;9.75;;;7.70;;
79460;SDS011;68929;42.666;23.324;2023-07-13T08:33:33;14.25;;;7.55;;
79460;SDS011;68929;42.666;23.324;2023-07-13T08:36:00;9.27;;;8.35;;
79460;SDS011;68929;42.666;23.324;2023-07-13T08:38:25;10.27;;;7.95;;
79460;SDS011;68929;42.666;23.324;2023-07-13T08:40:52;12.33;;;7.00;;
79460;SDS011;68929;42.666;23.324;2023-07-13T08:43:26;15.10;;;7.20;;
79460;SDS011;68929;42.666;23.324;2023-07-13T08:46:08;11.02;;;7.07;;
79460;SDS011;68929;42.666;23.324;2023-07-13T08:48:46;11.82;;;7.22;;
79460;SDS011;68929;42.666;23.324;2023-07-13T08:53:46;8.07;;;5.97;;
79460;SDS011;68929;42.666;23.324;2023-07-13T08:56:18;8.43;;;6.30;;
79460;SDS011;68929;42.666;23.324;2023-07-13T08:58:47;10.52;;;7.53;;
79460;SDS011;68929;42.666;23.324;2023-07-13T09:01:22;11.68;;;7.32;;
79460;SDS011;68929;42.666;23.324;2023-07-13T09:04:17;11.50;;;7.55;;
79460;SDS011;68929;42.666;23.324;2023-07-13T09:12:19;9.65;;;7.20;;
79460;SDS011;68929;42.666;23.324;2023-07-13T09:14:56;18.67;;;8.52;;
79460;SDS011;68929;42.666;23.324;2023-07-13T09:17:30;15.60;;;8.05;;
79460;SDS011;68929;42.666;23.324;2023-07-13T09:20:09;13.07;;;8.07;;
79460;SDS011;68929;42.666;23.324;2023-07-13T09:22:53;12.45;;;7.88;;
79460;SDS011;68929;42.666;23.324;2023-07-13T09:31:05;14.52;;;6.85;;
79460;SDS011;68929;42.666;23.324;2023-07-13T09:33:37;13.88;;;9.32;;
79460;SDS011;68929;42.666;23.324;2023-07-13T09:36:24;6.25;;;5.65;;
79460;SDS011;68929;42.666;23.324;2023-07-13T09:39:14;15.77;;;9.50;;
79460;SDS011;68929;42.666;23.324;2023-07-13T09:44:18;8.90;;;7.90;;
79460;SDS011;68929;42.666;23.324;2023-07-13T09:46:58;13.38;;;6.38;;
79460;SDS011;68929;42.666;23.324;2023-07-13T09:49:25;12.10;;;8.25;;
79460;SDS011;68929;42.666;23.324;2023-07-13T09:51:57;16.65;;;9.10;;
79460;SDS011;68929;42.666;23.324;2023-07-13T09:54:36;10.63;;;7.07;;
79460;SDS011;68929;42.666;23.324;2023-07-13T09:57:02;12.20;;;7.88;;
79460;SDS011;68929;42.666;23.324;2023-07-13T09:59:39;6.18;;;5.53;;
79460;SDS011;68929;42.666;23.324;2023-07-13T10:07:42;16.38;;;8.05;;
79460;SDS011;68929;42.666;23.324;2023-07-13T10:10:19;13.43;;;7.82;;
79460;SDS011;68929;42.666;23.324;2023-07-13T10:12:52;16.17;;;8.57;;
79460;SDS011;68929;42.666;23.324;2023-07-13T10:15:22;15.10;;;8.32;;
79460;SDS011;68929;42.666;23.324;2023-07-13T10:17:53;11.85;;;8.30;;
79460;SDS011;68929;42.666;23.324;2023-07-13T10:20:26;14.73;;;7.53;;
79460;SDS011;68929;42.666;23.324;2023-07-13T10:22:58;13.18;;;8.27;;
79460;SDS011;68929;42.666;23.324;2023-07-13T10:25:25;12.98;;;5.55;;
79460;SDS011;68929;42.666;23.324;2023-07-13T10:27:58;13.85;;;5.55;;
79460;SDS011;68929;42.666;23.324;2023-07-13T10:30:31;9.10;;;5.47;;
79460;SDS011;68929;42.666;23.324;2023-07-13T10:35:28;9.27;;;4.25;;
79460;SDS011;68929;42.666;23.324;2023-07-13T10:37:57;9.00;;;4.70;;
79460;SDS011;68929;42.666;23.324;2023-07-13T10:40:36;10.18;;;5.35;;
79460;SDS011;68929;42.666;23.324;2023-07-13T10:43:28;7.82;;;5.18;;
79460;SDS011;68929;42.666;23.324;2023-07-13T10:46:25;7.85;;;5.13;;
79460;SDS011;68929;42.666;23.324;2023-07-13T10:48:56;8.85;;;5.70;;
79460;SDS011;68929;42.666;23.324;2023-07-13T10:51:32;12.38;;;5.10;;
79460;SDS011;68929;42.666;23.324;2023-07-13T10:56:40;9.15;;;5.13;;
79460;SDS011;68929;42.666;23.324;2023-07-13T11:01:53;8.20;;;5.38;;
79460;SDS011;68929;42.666;23.324;2023-07-13T11:04:54;6.70;;;5.50;;
79460;SDS011;68929;42.666;23.324;2023-07-13T11:19:18;8.98;;;5.28;;
79460;SDS011;68929;42.666;23.324;2023-07-13T11:22:02;8.70;;;4.82;;
79460;SDS011;68929;42.666;23.324;2023-07-13T11:24:56;11.63;;;5.45;;
79460;SDS011;68929;42.666;23.324;2023-07-13T11:27:36;11.00;;;5.55;;
79460;SDS011;68929;42.666;23.324;2023-07-13T11:33:07;8.23;;;5.28;;
79460;SDS011;68929;42.666;23.324;2023-07-13T11:35:45;6.38;;;4.65;;
79460;SDS011;68929;42.666;23.324;2023-07-13T11:38:40;8.50;;;5.05;;
79460;SDS011;68929;42.666;23.324;2023-07-13T11:41:12;6.07;;;4.80;;
79460;SDS011;68929;42.666;23.324;2023-07-13T11:43:41;9.30;;;5.40;;
79460;SDS011;68929;42.666;23.324;2023-07-13T11:46:20;8.30;;;5.07;;
79460;SDS011;68929;42.666;23.324;2023-07-13T11:48:52;8.90;;;5.32;;
79460;SDS011;68929;42.666;23.324;2023-07-13T11:51:26;9.70;;;4.95;;
79460;SDS011;68929;42.666;23.324;2023-07-13T11:53:56;8.88;;;5.20;;
79460;SDS011;68929;42.666;23.324;2023-07-13T11:56:24;11.05;;;5.10;;
79460;SDS011;68929;42.666;23.324;2023-07-13T11:58:54;12.52;;;5.18;;
79460;SDS011;68929;42.666;23.324;2023-07-13T12:01:30;10.20;;;5.28;;
79460;SDS011;68929;42.666;23.324;2023-07-13T12:03:57;7.68;;;4.95;;
79460;SDS011;68929;42.666;23.324;2023-07-13T12:08:55;8.48;;;4.97;;
79460;SDS011;68929;42.666;23.324;2023-07-13T12:11:50;9.55;;;5.03;;
79460;SDS011;68929;42.666;23.324;2023-07-13T12:14:16;14.88;;;5.43;;
79460;SDS011;68929;42.666;23.324;2023-07-13T12:16:43;11.20;;;5.28;;
79460;SDS011;68929;42.666;23.324;2023-07-13T12:19:18;11.30;;;5.45;;
79460;SDS011;68929;42.666;23.324;2023-07-13T12:21:46;8.70;;;4.55;;
79460;SDS011;68929;42.666;23.324;2023-07-13T12:24:16;12.48;;;5.10;;
79460;SDS011;68929;42.666;23.324;2023-07-13T12:26:51;10.52;;;5.05;;
79460;SDS011;68929;42.666;23.324;2023-07-13T12:29:19;5.88;;;4.70;;
79460;SDS011;68929;42.666;23.324;2023-07-13T12:31:46;13.57;;;4.72;;
79460;SDS011;68929;42.666;23.324;2023-07-13T12:34:20;10.25;;;5.20;;
79460;SDS011;68929;42.666;23.324;2023-07-13T12:42:18;6.85;;;5.07;;
79460;SDS011;68929;42.666;23.324;2023-07-13T12:45:11;6.70;;;4.22;;
79460;SDS011;68929;42.666;23.324;2023-07-13T12:47:53;11.05;;;5.15;;
79460;SDS011;68929;42.666;23.324;2023-07-13T12:50:21;7.90;;;3.80;;
79460;SDS011;68929;42.666;23.324;2023-07-13T12:52:56;11.73;;;5.43;;
79460;SDS011;68929;42.666;23.324;2023-07-13T13:00:59;10.50;;;5.07;;
79460;SDS011;68929;42.666;23.324;2023-07-13T13:04:01;15.68;;;6.38;;
79460;SDS011;68929;42.666;23.324;2023-07-13T13:06:26;9.77;;;5.78;;
79460;SDS011;68929;42.666;23.324;2023-07-13T13:08:53;10.80;;;4.53;;
79460;SDS011;68929;42.666;23.324;2023-07-13T13:11:22;11.18;;;5.85;;
79460;SDS011;68929;42.666;23.324;2023-07-13T13:13:51;8.80;;;3.90;;
79460;SDS011;68929;42.666;23.324;2023-07-13T13:16:32;12.02;;;5.25;;
79460;SDS011;68929;42.666;23.324;2023-07-13T13:19:12;8.75;;;4.90;;
79460;SDS011;68929;42.666;23.324;2023-07-13T13:24:18;7.35;;;4.25;;
79460;SDS011;68929;42.666;23.324;2023-07-13T13:26:48;12.63;;;5.20;;
79460;SDS011;68929;42.666;23.324;2023-07-13T13:29:20;14.23;;;5.78;;
79460;SDS011;68929;42.666;23.324;2023-07-13T13:31:54;13.05;;;5.85;;
79460;SDS011;68929;42.666;23.324;2023-07-13T13:34:22;8.23;;;4.38;;
79460;SDS011;68929;42.666;23.324;2023-07-13T13:36:49;9.53;;;4.70;;
79460;SDS011;68929;42.666;23.324;2023-07-13T13:39:25;11.70;;;4.75;;
79460;SDS011;68929;42.666;23.324;2023-07-13T13:41:57;8.63;;;5.43;;
79460;SDS011;68929;42.666;23.324;2023-07-13T13:44:27;10.77;;;5.60;;
79460;SDS011;68929;42.666;23.324;2023-07-13T13:47:01;16.88;;;5.95;;
79460;SDS011;68929;42.666;23.324;2023-07-13T13:49:27;9.15;;;4.97;;
79460;SDS011;68929;42.666;23.324;2023-07-13T13:51:54;12.05;;;4.38;;
79460;SDS011;68929;42.666;23.324;2023-07-13T13:54:21;12.32;;;5.75;;
79460;SDS011;68929;42.666;23.324;2023-07-13T13:56:48;13.07;;;5.93;;
79460;SDS011;68929;42.666;23.324;2023-07-13T13:59:15;11.73;;;4.28;;
79460;SDS011;68929;42.666;23.324;2023-07-13T14:01:46;16.02;;;5.53;;
79460;SDS011;68929;42.666;23.324;2023-07-13T14:04:20;8.40;;;4.70;;
79460;SDS011;68929;42.666;23.324;2023-07-13T14:06:47;12.00;;;4.38;;
79460;SDS011;68929;42.666;23.324;2023-07-13T14:09:14;5.72;;;3.50;;
79460;SDS011;68929;42.666;23.324;2023-07-13T14:11:42;8.52;;;5.13;;
79460;SDS011;68929;42.666;23.324;2023-07-13T14:14:14;12.93;;;4.90;;
79460;SDS011;68929;42.666;23.324;2023-07-13T14:16:52;13.57;;;5.63;;
79460;SDS011;68929;42.666;23.324;2023-07-13T14:19:19;10.73;;;5.30;;
79460;SDS011;68929;42.666;23.324;2023-07-13T14:21:45;11.63;;;5.32;;
79460;SDS011;68929;42.666;23.324;2023-07-13T14:24:12;10.35;;;5.10;;
79460;SDS011;68929;42.666;23.324;2023-07-13T14:26:38;12.70;;;4.45;;
79460;SDS011;68929;42.666;23.324;2023-07-13T14:29:11;8.05;;;4.25;;
79460;SDS011;68929;42.666;23.324;2023-07-13T14:31:39;11.13;;;4.68;;
79460;SDS011;68929;42.666;23.324;2023-07-13T14:34:05;8.27;;;4.07;;
79460;SDS011;68929;42.666;23.324;2023-07-13T14:36:32;7.32;;;5.00;;
79460;SDS011;68929;42.666;23.324;2023-07-13T14:39:10;16.77;;;5.45;;
79460;SDS011;68929;42.666;23.324;2023-07-13T14:41:38;11.57;;;5.10;;
79460;SDS011;68929;42.666;23.324;2023-07-13T14:44:17;10.90;;;5.65;;
79460;SDS011;68929;42.666;23.324;2023-07-13T14:46:45;12.43;;;5.75;;
79460;SDS011;68929;42.666;23.324;2023-07-13T14:49:20;11.77;;;4.85;;
79460;SDS011;68929;42.666;23.324;2023-07-13T14:51:57;10.40;;;5.20;;
79460;SDS011;68929;42.666;23.324;2023-07-13T14:54:25;12.98;;;5.47;;
79460;SDS011;68929;42.666;23.324;2023-07-13T14:56:50;15.50;;;6.15;;
79460;SDS011;68929;42.666;23.324;2023-07-13T14:59:16;12.23;;;5.60;;
79460;SDS011;68929;42.666;23.324;2023-07-13T15:01:44;12.02;;;5.30;;
79460;SDS011;68929;42.666;23.324;2023-07-13T15:04:10;9.95;;;5.00;;
79460;SDS011;68929;42.666;23.324;2023-07-13T15:09:24;10.82;;;5.75;;
79460;SDS011;68929;42.666;23.324;2023-07-13T15:11:57;14.18;;;5.10;;
79460;SDS011;68929;42.666;23.324;2023-07-13T15:14:23;12.82;;;6.45;;
79460;SDS011;68929;42.666;23.324;2023-07-13T15:16:50;10.88;;;5.60;;
79460;SDS011;68929;42.666;23.324;2023-07-13T15:19:18;9.38;;;4.82;;
79460;SDS011;68929;42.666;23.324;2023-07-13T15:21:44;13.63;;;5.75;;
79460;SDS011;68929;42.666;23.324;2023-07-13T15:24:10;12.73;;;5.63;;
79460;SDS011;68929;42.666;23.324;2023-07-13T15:26:35;11.80;;;5.68;;
79460;SDS011;68929;42.666;23.324;2023-07-13T15:29:01;13.18;;;5.85;;
79460;SDS011;68929;42.666;23.324;2023-07-13T15:31:28;11.35;;;5.32;;
79460;SDS011;68929;42.666;23.324;2023-07-13T15:33:55;8.13;;;4.93;;
79460;SDS011;68929;42.666;23.324;2023-07-13T15:36:22;10.02;;;5.35;;
79460;SDS011;68929;42.666;23.324;2023-07-13T15:38:48;13.20;;;5.55;;
79460;SDS011;68929;42.666;23.324;2023-07-13T15:41:17;11.23;;;5.53;;